Time;durP1;ratioP1;P1;durP2;ratioP2;P2;SDS_P1;SDS_P2;PMS_P1;PMS_P2;Temp;Humidity;BMP_temperature;BMP_pressure;BME280_temperature;BME280_humidity;BME280_pressure;Samples;Min_cycle;Max_cycle;Signal;HPM_P1;HPM_P2
2022/04/10 00:00:59;;;;;;;9.90;6.20;;;5.50;99.90;;;;;;5007635;28;20991;-80
2022/04/10 00:03:25;;;;;;;8.03;5.53;;;5.50;99.90;;;;;;4992572;28;20278;-80
2022/04/10 00:05:52;;;;;;;8.67;5.60;;;5.40;99.90;;;;;;5008157;28;20171;-80
2022/04/10 00:08:18;;;;;;;8.50;5.00;;;5.30;99.90;;;;;;4977240;28;20183;-80
2022/04/10 00:10:44;;;;;;;8.17;4.93;;;5.20;99.90;;;;;;4994058;28;20223;-80
2022/04/10 00:13:11;;;;;;;7.73;5.20;;;5.30;99.90;;;;;;4992809;28;20270;-80
2022/04/10 00:15:37;;;;;;;14.03;10.30;;;5.30;99.90;;;;;;5009643;28;20210;-80
2022/04/10 00:18:03;;;;;;;9.10;6.00;;;5.30;99.90;;;;;;4977582;28;20218;-80
2022/04/10 00:20:29;;;;;;;10.70;7.23;;;5.30;99.90;;;;;;5000103;28;20258;-80
2022/04/10 00:22:55;;;;;;;10.87;7.57;;;5.20;99.90;;;;;;5001783;28;20223;-80
2022/04/10 00:25:21;;;;;;;8.43;5.97;;;5.30;99.90;;;;;;4977789;28;20341;-79
2022/04/10 00:27:48;;;;;;;10.93;7.23;;;5.20;99.90;;;;;;4999250;28;20214;-80
2022/04/10 00:30:15;;;;;;;9.23;7.30;;;5.20;99.90;;;;;;5004084;28;20194;-80
2022/04/10 00:32:41;;;;;;;11.93;7.83;;;5.20;99.90;;;;;;5006156;28;20247;-80
2022/04/10 00:35:08;;;;;;;8.10;6.23;;;5.10;99.90;;;;;;5004076;28;21057;-80
2022/04/10 00:37:35;;;;;;;7.30;5.60;;;5.10;99.90;;;;;;5003032;28;20211;-80
2022/04/10 00:40:02;;;;;;;6.30;5.00;;;5.00;99.90;;;;;;5003409;28;20183;-80
2022/04/10 00:42:32;;;;;;;5.93;4.50;;;4.90;99.90;;;;;;4989198;28;20207;-80
2022/04/10 00:44:58;;;;;;;8.10;5.20;;;4.80;99.90;;;;;;4976607;28;20187;-81
2022/04/10 00:47:24;;;;;;;8.93;6.27;;;4.90;99.90;;;;;;4997991;28;21213;-80
2022/04/10 00:49:51;;;;;;;10.27;7.40;;;4.90;99.90;;;;;;5006415;28;20225;-81
2022/04/10 00:52:18;;;;;;;7.67;5.90;;;4.90;99.90;;;;;;5005502;28;20241;-80
2022/04/10 00:54:44;;;;;;;6.60;5.77;;;4.90;99.90;;;;;;4990120;28;20191;-80
2022/04/10 00:57:11;;;;;;;7.87;5.63;;;4.90;99.90;;;;;;4988399;28;20229;-80
2022/04/10 00:59:37;;;;;;;6.23;5.30;;;4.80;99.90;;;;;;4997604;28;20612;-80
2022/04/10 01:02:04;;;;;;;10.17;6.13;;;4.80;99.90;;;;;;4973348;28;20234;-80
2022/04/10 01:04:31;;;;;;;9.35;7.40;;;;;;;;;;4988434;28;20489;-80
2022/04/10 01:06:59;;;;;;;10.53;7.90;;;4.70;99.90;;;;;;4988317;28;20302;-80
2022/04/10 01:09:25;;;;;;;17.47;10.73;;;4.80;99.90;;;;;;4985441;28;20852;-80
2022/04/10 01:11:53;;;;;;;20.10;13.60;;;4.80;99.90;;;;;;5000549;28;20179;-80
2022/04/10 01:14:21;;;;;;;12.13;8.73;;;4.80;99.90;;;;;;5002184;28;20183;-80
2022/04/10 01:16:47;;;;;;;12.37;7.80;;;4.70;99.90;;;;;;4985329;28;20183;-80
2022/04/10 01:19:16;;;;;;;10.67;7.23;;;4.70;99.90;;;;;;4984259;28;20237;-80
2022/04/10 01:21:46;;;;;;;9.13;6.70;;;4.70;99.90;;;;;;5001223;28;20195;-80
2022/04/10 01:24:14;;;;;;;8.27;5.80;;;4.60;99.90;;;;;;5004541;28;20194;-81
2022/04/10 01:26:42;;;;;;;12.90;9.40;;;4.60;99.90;;;;;;5009917;28;20658;-81
2022/04/10 01:29:13;;;;;;;10.07;6.87;;;4.60;99.90;;;;;;4991729;28;20552;-80
2022/04/10 01:31:45;;;;;;;8.27;6.60;;;4.50;99.90;;;;;;5003487;28;20188;-80
2022/04/10 01:34:13;;;;;;;11.57;8.77;;;4.50;99.90;;;;;;4989658;28;20183;-81
2022/04/10 01:36:41;;;;;;;8.73;6.23;;;4.40;99.90;;;;;;4988472;28;20191;-80
2022/04/10 01:39:09;;;;;;;7.50;6.13;;;4.40;99.90;;;;;;4992647;28;20225;-79
2022/04/10 01:41:36;;;;;;;7.27;5.70;;;4.30;99.90;;;;;;4986619;28;20215;-79
2022/04/10 01:44:05;;;;;;;6.23;4.70;;;4.20;99.90;;;;;;4987948;28;20732;-80
2022/04/10 01:46:33;;;;;;;9.23;5.80;;;4.20;99.90;;;;;;4990497;28;20206;-80
2022/04/10 01:48:59;;;;;;;10.70;5.77;;;4.20;99.90;;;;;;5002921;28;21205;-80
2022/04/10 01:51:25;;;;;;;7.27;4.87;;;4.20;99.90;;;;;;4988076;28;20202;-79
2022/04/10 01:53:53;;;;;;;6.67;4.73;;;4.20;99.90;;;;;;5008057;28;20337;-80
2022/04/10 01:56:21;;;;;;;8.63;5.83;;;4.10;99.90;;;;;;5001152;28;21029;-80
2022/04/10 01:58:48;;;;;;;7.60;5.50;;;4.00;99.90;;;;;;4997727;28;20215;-80
2022/04/10 02:01:16;;;;;;;8.57;5.77;;;4.00;99.90;;;;;;4989319;28;20191;-79
2022/04/10 02:03:43;;;;;;;6.57;5.60;;;4.00;99.90;;;;;;5000982;28;20221;-79
2022/04/10 02:06:14;;;;;;;6.33;4.90;;;4.00;99.90;;;;;;4988074;28;20194;-79
2022/04/10 02:08:42;;;;;;;6.67;5.17;;;4.00;99.90;;;;;;5010770;23;20183;-77
2022/04/10 02:11:16;;;;;;;8.60;5.90;;;4.00;99.90;;;;;;5010534;28;20233;-77
2022/04/10 02:13:45;;;;;;;8.80;6.03;;;4.00;99.90;;;;;;4995271;28;20175;-76
2022/04/10 02:16:19;;;;;;;9.00;6.00;;;4.00;99.90;;;;;;5010290;28;20203;-76
2022/04/10 02:18:46;;;;;;;7.13;5.13;;;4.10;99.90;;;;;;5020294;28;20226;-76
2022/04/10 02:21:13;;;;;;;9.10;5.80;;;4.00;99.90;;;;;;5010154;28;20266;-76
2022/04/10 02:23:39;;;;;;;7.67;5.30;;;4.00;99.90;;;;;;5011965;28;20186;-77
2022/04/10 02:26:07;;;;;;;6.90;5.60;;;3.90;99.90;;;;;;5010845;28;20510;-76
2022/04/10 02:28:33;;;;;;;7.87;4.70;;;3.90;99.90;;;;;;5009743;28;20198;-77
2022/04/10 02:30:59;;;;;;;7.53;5.50;;;3.90;99.90;;;;;;5027908;28;20194;-76
2022/04/10 02:33:25;;;;;;;9.30;5.60;;;3.80;99.90;;;;;;5011723;28;20202;-77
2022/04/10 02:35:50;;;;;;;8.03;5.87;;;3.80;99.90;;;;;;5012990;28;20238;-76
2022/04/10 02:38:18;;;;;;;6.73;4.90;;;3.70;99.90;;;;;;4995787;28;20253;-76
2022/04/10 02:40:45;;;;;;;7.80;4.70;;;3.70;99.90;;;;;;4992529;28;20212;-77
2022/04/10 02:43:13;;;;;;;7.90;5.40;;;3.70;99.90;;;;;;4994427;28;20183;-77
2022/04/10 02:45:42;;;;;;;8.10;5.07;;;3.60;99.90;;;;;;5010766;28;20667;-76
2022/04/10 02:48:08;;;;;;;8.10;5.07;;;3.60;99.90;;;;;;5007732;28;20187;-76
2022/04/10 02:50:36;;;;;;;8.10;5.80;;;3.50;99.90;;;;;;4993649;28;20230;-77
2022/04/10 02:53:02;;;;;;;8.40;5.40;;;3.50;99.90;;;;;;5023312;28;20651;-76
2022/04/10 02:55:28;;;;;;;7.23;5.50;;;3.50;99.90;;;;;;5011670;28;20234;-77
2022/04/10 02:58:12;;;;;;;9.23;5.40;;;3.40;99.90;;;;;;5008156;28;20235;-76
2022/04/10 03:00:57;;;;;;;9.40;5.83;;;3.50;99.90;;;;;;5010118;28;20273;-77
2022/04/10 03:03:41;;;;;;;7.20;5.70;;;3.50;99.90;;;;;;5003907;28;20200;-77
2022/04/10 03:06:26;;;;;;;7.40;5.30;;;;;;;;;;5010282;28;20286;-77
2022/04/10 03:09:11;;;;;;;6.67;5.40;;;;;;;;;;5010551;28;20205;-77
2022/04/10 03:11:56;;;;;;;10.17;6.20;;;;;;;;;;5020621;28;20191;-77
2022/04/10 03:14:41;;;;;;;11.63;6.10;;;;;;;;;;5005479;28;20595;-76
2022/04/10 03:17:26;;;;;;;8.13;5.60;;;;;;;;;;4994847;28;20226;-76
2022/04/10 03:20:12;;;;;;;8.60;5.70;;;;;;;;;;5011598;28;20194;-76
2022/04/10 03:22:57;;;;;;;7.70;6.07;;;;;;;;;;5010124;28;20270;-77
2022/04/10 03:25:41;;;;;;;7.87;5.97;;;;;;;;;;5004473;28;20257;-77
2022/04/10 03:28:27;;;;;;;11.10;6.77;;;;;;;;;;5003241;28;20206;-76
2022/04/10 03:31:12;;;;;;;7.30;5.60;;;;;;;;;;5005327;28;20258;-76
2022/04/10 03:33:57;;;;;;;9.67;6.10;;;;;;;;;;4993020;28;20237;-76
2022/04/10 03:36:42;;;;;;;11.37;7.53;;;;;;;;;;5007984;28;20202;-76
2022/04/10 03:39:28;;;;;;;7.73;5.60;;;;;;;;;;5010110;28;20306;-77
2022/04/10 03:42:13;;;;;;;11.07;7.03;;;;;;;;;;5007770;28;20245;-77
2022/04/10 03:44:58;;;;;;;7.10;6.27;;;;;;;;;;5005761;28;20218;-76
2022/04/10 03:47:44;;;;;;;9.87;6.53;;;;;;;;;;5007939;28;20214;-76
2022/04/10 03:50:28;;;;;;;8.93;7.27;;;;;;;;;;5011241;28;20206;-76
2022/04/10 03:53:14;;;;;;;7.53;5.93;;;;;;;;;;5003637;28;20341;-76
2022/04/10 03:56:00;;;;;;;7.87;5.97;;;;;;;;;;5011130;28;20226;-77
2022/04/10 03:58:45;;;;;;;8.70;5.57;;;;;;;;;;5008037;28;20273;-76
2022/04/10 04:01:31;;;;;;;8.47;5.47;;;;;;;;;;5002980;28;20282;-77
2022/04/10 04:04:16;;;;;;;8.03;5.77;;;;;;;;;;5001698;28;20339;-77
2022/04/10 04:07:01;;;;;;;10.87;7.03;;;;;;;;;;5003747;28;20281;-76
2022/04/10 04:09:47;;;;;;;11.03;7.50;;;;;;;;;;5008469;28;20257;-76
2022/04/10 04:12:34;;;;;;;11.20;7.83;;;;;;;;;;5007620;28;20214;-76
2022/04/10 04:15:19;;;;;;;12.57;8.83;;;;;;;;;;5008087;28;20584;-76
2022/04/10 04:18:04;;;;;;;12.27;7.63;;;;;;;;;;5008552;28;20222;-76
2022/04/10 04:20:48;;;;;;;10.33;7.53;;;3.50;99.90;;;;;;5006972;28;20208;-76
2022/04/10 04:23:33;;;;;;;11.53;8.03;;;3.20;99.90;;;;;;5010766;28;20222;-76
2022/04/10 04:26:17;;;;;;;10.57;7.90;;;3.20;99.90;;;;;;4992379;28;20205;-76
2022/04/10 04:29:02;;;;;;;9.37;7.53;;;3.20;99.90;;;;;;5006026;28;20228;-76
2022/04/10 04:31:47;;;;;;;10.77;7.67;;;3.20;99.90;;;;;;5008071;28;20182;-76
2022/04/10 04:34:32;;;;;;;7.93;7.00;;;3.10;99.90;;;;;;5011052;28;20670;-76
2022/04/10 04:37:17;;;;;;;11.23;8.43;;;;;;;;;;5008878;28;20255;-76
2022/04/10 04:40:02;;;;;;;9.97;7.03;;;;;;;;;;5008100;28;20265;-77
2022/04/10 04:42:47;;;;;;;8.60;6.73;;;;;;;;;;5009895;28;20685;-77
2022/04/10 04:45:33;;;;;;;10.60;7.60;;;;;;;;;;5008555;28;20261;-77
2022/04/10 04:48:26;;;;;;;12.30;7.83;;;;;;;;;;5009760;28;20189;-77
2022/04/10 04:51:14;;;;;;;10.93;7.40;;;;;;;;;;5004406;28;20709;-77
2022/04/10 04:53:58;;;;;;;8.40;6.73;;;;;;;;;;5007652;28;20708;-77
2022/04/10 04:56:43;;;;;;;9.43;7.93;;;;;;;;;;5020949;28;20238;-77
2022/04/10 04:59:28;;;;;;;10.67;7.00;;;;;;;;;;4995163;28;20677;-77
2022/04/10 05:02:16;;;;;;;10.57;7.17;;;;;;;;;;4999703;28;20214;-77
2022/04/10 05:05:01;;;;;;;8.67;7.03;;;;;;;;;;5003330;28;20582;-77
2022/04/10 05:07:45;;;;;;;11.60;7.43;;;;;;;;;;5003288;28;20205;-77
2022/04/10 05:10:31;;;;;;;8.97;7.07;;;;;;;;;;5009791;28;20286;-77
2022/04/10 05:13:16;;;;;;;8.00;6.77;;;;;;;;;;5010894;28;20306;-77
2022/04/10 05:16:02;;;;;;;10.53;7.80;;;;;;;;;;5015251;28;20213;-77
2022/04/10 05:18:52;;;;;;;8.90;7.07;;;;;;;;;;5011914;28;20584;-77
2022/04/10 05:21:41;;;;;;;10.70;7.80;;;;;;;;;;5012802;28;20260;-77
2022/04/10 05:24:26;;;;;;;9.50;6.93;;;;;;;;;;5010327;28;20248;-77
2022/04/10 05:27:11;;;;;;;12.00;8.03;;;;;;;;;;5012697;28;20616;-77
2022/04/10 05:29:56;;;;;;;9.47;7.97;;;;;;;;;;5011072;28;20193;-77
2022/04/10 05:32:43;;;;;;;10.37;8.17;;;;;;;;;;5004886;28;20243;-77
2022/04/10 05:35:29;;;;;;;8.73;6.57;;;;;;;;;;5012812;28;20217;-77
2022/04/10 05:38:14;;;;;;;8.37;6.77;;;;;;;;;;4996786;28;20257;-77
2022/04/10 05:41:00;;;;;;;11.47;7.87;;;;;;;;;;5012732;28;20186;-77
2022/04/10 05:43:48;;;;;;;11.83;9.17;;;;;;;;;;5009636;28;20773;-77
2022/04/10 05:46:38;;;;;;;9.33;8.30;;;;;;;;;;5011118;28;20661;-77
2022/04/10 05:49:23;;;;;;;11.37;8.20;;;;;;;;;;5003056;28;20253;-77
2022/04/10 05:52:07;;;;;;;10.00;7.67;;;;;;;;;;5009648;28;20194;-77
2022/04/10 05:54:57;;;;;;;8.67;6.97;;;;;;;;;;5000031;28;20293;-77
2022/04/10 05:57:42;;;;;;;9.20;7.57;;;;;;;;;;4997278;28;20318;-76
2022/04/10 06:00:27;;;;;;;9.93;7.47;;;;;;;;;;5005449;28;20187;-77
2022/04/10 06:03:23;;;;;;;12.27;8.00;;;;;;;;;;5007807;28;20198;-77
2022/04/10 06:06:11;;;;;;;10.70;8.20;;;;;;;;;;5005631;28;20218;-77
2022/04/10 06:09:01;;;;;;;9.10;8.10;;;;;;;;;;5004328;28;20206;-77
2022/04/10 06:11:47;;;;;;;10.27;8.07;;;;;;;;;;5011761;28;20186;-77
2022/04/10 06:14:32;;;;;;;10.83;7.80;;;;;;;;;;5010936;28;20554;-77
2022/04/10 06:16:59;;;;;;;10.40;7.77;;;;;;;;;;5008376;28;20203;-77
2022/04/10 06:19:28;;;;;;;12.53;8.50;;;;;;;;;;5010361;28;20561;-78
2022/04/10 06:21:54;;;;;;;11.10;8.33;;;;;;;;;;5004658;28;20231;-81
2022/04/10 06:24:21;;;;;;;11.10;8.07;;;;;;;;;;4994620;28;20253;-83
2022/04/10 06:26:51;;;;;;;10.33;7.60;;;;;;;;;;4978665;28;20176;-81
2022/04/10 06:29:19;;;;;;;9.37;7.30;;;;;;;;;;5028665;28;20188;-81
2022/04/10 06:31:50;;;;;;;10.77;7.67;;;;;;;;;;4993928;28;20197;-81
2022/04/10 06:34:18;;;;;;;10.97;7.77;;;;;;;;;;4995755;28;20182;-81
2022/04/10 06:36:45;;;;;;;10.70;7.40;;;;;;;;;;4995073;28;20684;-82
2022/04/10 06:39:12;;;;;;;10.20;6.87;;;;;;;;;;4994801;28;20565;-80
2022/04/10 06:41:38;;;;;;;11.73;8.17;;;;;;;;;;5025224;28;20180;-81
2022/04/10 06:44:17;;;;;;;10.50;8.00;;;;;;;;;;4995974;28;20639;-82
2022/04/10 06:46:55;;;;;;;10.93;7.27;;;;;;;;;;4983840;28;20229;-82
2022/04/10 06:49:28;;;;;;;10.83;7.30;;;;;;;;;;5001901;28;20188;-82
2022/04/10 06:51:58;;;;;;;8.37;6.63;;;;;;;;;;5015189;28;20643;-84
2022/04/10 06:54:32;;;;;;;9.60;7.20;;;;;;;;;;4986842;28;20278;-84
2022/04/10 06:56:58;;;;;;;9.77;7.30;;;;;;;;;;5000799;28;20175;-81
2022/04/10 06:59:25;;;;;;;12.40;7.90;;;;;;;;;;5022249;28;20187;-81
2022/04/10 07:01:52;;;;;;;12.40;8.03;;;;;;;;;;5018539;28;20179;-81
2022/04/10 07:04:18;;;;;;;11.13;7.80;;;;;;;;;;4995358;28;20617;-87
2022/04/10 07:06:46;;;;;;;9.40;8.00;;;;;;;;;;4998881;28;20183;-85
2022/04/10 07:09:18;;;;;;;11.47;8.37;;;;;;;;;;4996528;28;20722;-86
2022/04/10 07:11:45;;;;;;;12.30;8.23;;;;;;;;;;4979923;28;20186;-85
2022/04/10 07:14:28;;;;;;;11.60;8.53;;;;;;;;;;5001039;28;20202;-85
2022/04/10 07:16:55;;;;;;;11.63;8.33;;;;;;;;;;5008678;28;20266;-82
2022/04/10 07:19:21;;;;;;;10.83;8.57;;;;;;;;;;5008101;28;20191;-85
2022/04/10 07:24:33;;;;;;;12.53;9.70;;;;;;;;;;4992250;28;20171;-84
2022/04/10 07:26:59;;;;;;;12.30;8.37;;;;;;;;;;4992590;28;20191;-85
2022/04/10 07:29:34;;;;;;;10.13;8.07;;;;;;;;;;4994652;28;20187;-85
2022/04/10 07:32:03;;;;;;;11.40;8.43;;;;;;;;;;4982922;28;20187;-85
2022/04/10 07:34:33;;;;;;;11.27;9.07;;;;;;;;;;4995629;28;20180;-85
2022/04/10 07:37:09;;;;;;;11.13;8.67;;;;;;;;;;4991693;28;20677;-86
2022/04/10 07:39:44;;;;;;;9.47;7.60;;;;;;;;;;4995509;28;20171;-85
2022/04/10 07:42:23;;;;;;;11.67;9.00;;;;;;;;;;4981247;28;20326;-84
2022/04/10 07:44:49;;;;;;;9.73;7.40;;;;;;;;;;4985108;28;20679;-84
2022/04/10 07:47:26;;;;;;;11.20;8.33;;;;;;;;;;4994940;28;20195;-85
2022/04/10 07:49:53;;;;;;;12.57;7.70;;;;;;;;;;4985420;28;20179;-84
2022/04/10 07:52:20;;;;;;;12.93;7.77;;;;;;;;;;4978375;28;20183;-83
2022/04/10 07:54:58;;;;;;;13.23;7.57;;;;;;;;;;4981325;28;20245;-84
2022/04/10 07:57:25;;;;;;;12.90;7.73;;;;;;;;;;4978676;28;20215;-84
2022/04/10 07:59:51;;;;;;;11.73;7.97;;;;;;;;;;4977908;28;20183;-85
2022/04/10 08:02:38;;;;;;;14.00;8.60;;;;;;;;;;5011241;28;20198;-85
2022/04/10 08:05:05;;;;;;;12.47;8.20;;;;;;;;;;4994826;28;20195;-84
2022/04/10 08:07:58;;;;;;;11.37;8.03;;;;;;;;;;4992745;28;20206;-84
2022/04/10 08:10:24;;;;;;;10.50;7.30;;;;;;;;;;4979624;28;20206;-83
2022/04/10 08:12:51;;;;;;;12.57;7.50;;;;;;;;;;5008782;28;20242;-85
2022/04/10 08:15:18;;;;;;;11.67;8.17;;;;;;;;;;5011313;28;20675;-84
2022/04/10 08:17:44;;;;;;;12.93;8.27;;;;;;;;;;5006225;28;20196;-84
2022/04/10 08:20:11;;;;;;;14.67;8.53;;;;;;;;;;4982360;28;20183;-85
2022/04/10 08:22:39;;;;;;;11.57;7.80;;;;;;;;;;4991843;28;20175;-85
2022/04/10 08:25:06;;;;;;;11.47;8.47;;;;;;;;;;5002879;28;20715;-82
2022/04/10 08:27:33;;;;;;;11.37;7.47;;;;;;;;;;5026186;28;20206;-83
2022/04/10 08:29:59;;;;;;;12.60;7.77;;;;;;;;;;5015180;28;20185;-84
2022/04/10 08:32:25;;;;;;;12.73;7.87;;;;;;;;;;4996967;28;20179;-84
2022/04/10 08:34:52;;;;;;;10.20;7.50;;;;;;;;;;4979775;28;20748;-84
2022/04/10 08:37:19;;;;;;;14.27;10.30;;;;;;;;;;4994675;28;20258;-84
2022/04/10 08:39:45;;;;;;;14.77;10.53;;;;;;;;;;5006549;28;20183;-84
2022/04/10 08:42:12;;;;;;;12.57;9.23;;;;;;;;;;5011130;28;20210;-83
2022/04/10 08:44:38;;;;;;;13.73;8.97;;;;;;;;;;4977812;28;20210;-85
2022/04/10 08:47:04;;;;;;;13.70;9.73;;;;;;;;;;4979955;28;20195;-84
2022/04/10 08:49:34;;;;;;;11.53;8.10;;;;;;;;;;4981774;28;20244;-84
2022/04/10 08:52:00;;;;;;;12.60;9.20;;;;;;;;;;5000001;28;20183;-84
2022/04/10 08:54:27;;;;;;;13.80;9.63;;;;;;;;;;4978399;28;20171;-84
2022/04/10 08:56:55;;;;;;;11.30;9.20;;;;;;;;;;4979596;28;20182;-84
2022/04/10 08:59:22;;;;;;;12.97;8.93;;;;;;;;;;4999138;28;20237;-85
2022/04/10 09:01:56;;;;;;;10.20;8.23;;;;;;;;;;4993588;28;20179;-85
2022/04/10 09:04:23;;;;;;;12.80;9.53;;;;;;;;;;4994761;28;20182;-84
2022/04/10 09:07:04;;;;;;;12.87;8.87;;;;;;;;;;4977922;28;20195;-84
2022/04/10 09:09:31;;;;;;;11.83;9.60;;;;;;;;;;5000067;28;20207;-84
2022/04/10 09:11:57;;;;;;;11.37;9.40;;;;;;;;;;4994873;28;20215;-84
2022/04/10 09:14:24;;;;;;;13.80;9.57;;;;;;;;;;4993311;28;20211;-85
2022/04/10 09:17:09;;;;;;;12.57;9.73;;;;;;;;;;5010013;28;20274;-84
2022/04/10 09:19:38;;;;;;;13.10;9.00;;;;;;;;;;4977612;28;20264;-86
2022/04/10 09:22:24;;;;;;;10.47;8.77;;;;;;;;;;5010871;28;20650;-85
2022/04/10 09:25:11;;;;;;;12.23;9.40;;;;;;;;;;4993677;28;20235;-85
2022/04/10 09:27:39;;;;;;;12.40;9.50;;;;;;;;;;5008965;28;20571;-85
2022/04/10 09:30:06;;;;;;;10.53;8.90;;;;;;;;;;5009926;28;20183;-84
2022/04/10 09:32:51;;;;;;;12.30;9.80;;;;;;;;;;5000814;28;20187;-85
2022/04/10 09:35:21;;;;;;;13.10;8.93;;;;;;;;;;4977779;28;20214;-85
2022/04/10 09:37:51;;;;;;;10.77;9.13;;;;;;;;;;4993756;28;20745;-85
2022/04/10 09:40:20;;;;;;;15.33;9.47;;;;;;;;;;4977897;28;20184;-85
2022/04/10 09:42:49;;;;;;;9.60;7.67;;;;;;;;;;4993989;28;20681;-85
2022/04/10 09:45:28;;;;;;;11.60;8.30;;;;;;;;;;4975337;28;20261;-84
2022/04/10 09:47:55;;;;;;;9.13;8.13;;;;;;;;;;4993805;28;20202;-85
2022/04/10 09:50:33;;;;;;;9.27;8.27;;;;;;;;;;5005569;28;20187;-85
2022/04/10 09:53:06;;;;;;;10.07;7.37;;;;;;;;;;4999701;28;20210;-83
2022/04/10 09:55:37;;;;;;;10.77;8.37;;;;;;;;;;5017224;28;20199;-84
2022/04/10 09:58:06;;;;;;;11.37;8.43;;;;;;;;;;4998545;28;20207;-80
2022/04/10 10:00:33;;;;;;;9.00;8.00;;;;;;;;;;4997688;28;20191;-82
2022/04/10 10:03:00;;;;;;;10.43;8.57;;;;;;;;;;4998243;28;20187;-85
2022/04/10 10:05:27;;;;;;;9.77;8.70;;;;;;;;;;5009175;28;20202;-84
2022/04/10 10:07:53;;;;;;;10.03;9.07;;;;;;;;;;4997912;28;20262;-85
2022/04/10 10:10:20;;;;;;;10.10;8.80;;;;;;;;;;4997069;28;20198;-85
2022/04/10 10:12:48;;;;;;;9.97;8.93;;;;;;;;;;4997280;28;20546;-83
2022/04/10 10:15:14;;;;;;;9.47;8.23;;;;;;;;;;4981699;28;20211;-84
2022/04/10 10:17:40;;;;;;;9.27;8.03;;;;;;;;;;4995528;28;20310;-79
2022/04/10 10:20:07;;;;;;;8.83;7.93;;;;;;;;;;5015634;28;20175;-85
2022/04/10 10:22:34;;;;;;;12.37;9.30;;;;;;;;;;4981722;28;20670;-84
2022/04/10 10:25:07;;;;;;;12.17;10.93;;;;;;;;;;4981132;28;20219;-83
2022/04/10 10:27:36;;;;;;;12.10;9.87;;;;;;;;;;5004565;28;20183;-83
2022/04/10 10:30:21;;;;;;;12.27;10.57;;;;;;;;;;4999395;28;20655;-86
2022/04/10 10:32:55;;;;;;;12.77;9.80;;;;;;;;;;5011159;28;20218;-85
2022/04/10 10:35:36;;;;;;;11.40;9.07;;;;;;;;;;4993446;28;20223;-83
2022/04/10 10:38:02;;;;;;;9.27;8.33;;;;;;;;;;4993980;28;20238;-85
2022/04/10 10:40:29;;;;;;;12.77;10.53;;;;;;;;;;4978173;28;20183;-84
2022/04/10 10:42:58;;;;;;;12.50;10.37;;;;;;;;;;4977303;28;20326;-84
2022/04/10 10:45:32;;;;;;;12.70;10.50;;;;;;;;;;4979004;28;20223;-85
2022/04/10 10:48:17;;;;;;;14.13;11.00;;;;;;;;;;4978679;28;20270;-84
2022/04/10 10:50:44;;;;;;;12.37;11.00;;;;;;;;;;5010299;28;20190;-84
2022/04/10 10:53:10;;;;;;;12.13;10.37;;;;;;;;;;4994643;28;20175;-81
2022/04/10 10:55:54;;;;;;;13.67;11.17;;;;;;;;;;4994993;28;20268;-84
2022/04/10 10:58:32;;;;;;;13.77;11.60;;;;;;;;;;5009987;28;20202;-83
2022/04/10 11:01:05;;;;;;;11.40;10.20;;;;;;;;;;5012299;28;20544;-84
2022/04/10 11:03:31;;;;;;;14.00;12.13;;;;;;;;;;4980252;28;20187;-83
2022/04/10 11:06:05;;;;;;;14.37;11.90;;;;;;;;;;5013574;28;20195;-83
2022/04/10 11:08:39;;;;;;;12.67;11.37;;;;;;;;;;5003524;28;20561;-85
2022/04/10 11:11:05;;;;;;;20.57;18.43;;;;;;;;;;5013461;28;20249;-83
2022/04/10 11:13:38;;;;;;;16.40;14.70;;;;;;;;;;5012291;28;20287;-85
2022/04/10 11:16:11;;;;;;;16.23;14.47;;;;;;;;;;5010803;28;20272;-84
2022/04/10 11:18:42;;;;;;;12.77;11.47;;;;;;;;;;4976357;28;20206;-84
2022/04/10 11:21:15;;;;;;;11.60;10.17;;;;;;;;;;4993911;28;20191;-85
2022/04/10 11:23:45;;;;;;;18.07;14.50;;;;;;;;;;4988944;28;20176;-84
2022/04/10 11:26:15;;;;;;;12.87;11.30;;;;;;;;;;4978987;28;20222;-82
2022/04/10 11:28:55;;;;;;;12.17;10.87;;;;;;;;;;5008561;28;20199;-79
2022/04/10 11:31:27;;;;;;;24.37;20.00;;;;;;;;;;4991386;28;20265;-82
2022/04/10 11:33:55;;;;;;;13.90;11.63;;;;;;;;;;5009827;28;20191;-80
2022/04/10 11:36:21;;;;;;;11.37;10.27;;;;;;;;;;5010949;28;20219;-81
2022/04/10 11:39:14;;;;;;;11.20;9.67;;;;;;;;;;5012252;28;20230;-83
2022/04/10 11:41:41;;;;;;;12.73;10.23;;;;;;;;;;5008174;28;20222;-82
2022/04/10 11:44:08;;;;;;;11.47;9.10;;;;;;;;;;5024386;28;20187;-82
2022/04/10 11:46:34;;;;;;;10.47;9.47;;;;;;;;;;5008416;28;20211;-82
2022/04/10 11:49:01;;;;;;;13.20;11.10;;;;;;;;;;4992901;28;20184;-83
2022/04/10 11:51:28;;;;;;;11.37;10.10;;;;;;;;;;4997545;28;20222;-82
2022/04/10 11:54:00;;;;;;;12.20;10.90;;;;;;;;;;5009272;28;20188;-82
2022/04/10 11:56:27;;;;;;;13.80;12.30;;;10.70;91.90;;;;;;4994174;28;20293;-82
2022/04/10 11:58:52;;;;;;;11.40;10.00;;;12.70;74.30;;;;;;5005528;28;20214;-83
2022/04/10 12:01:19;;;;;;;12.07;9.33;;;12.90;70.60;;;;;;5008579;28;21275;-82
2022/04/10 12:03:49;;;;;;;11.03;9.93;;;13.20;67.60;;;;;;5010201;28;20257;-83
2022/04/10 12:06:19;;;;;;;11.10;9.97;;;13.50;65.70;;;;;;5011864;28;20278;-83
2022/04/10 12:08:49;;;;;;;11.90;10.03;;;13.70;63.20;;;;;;5010120;28;20187;-83
2022/04/10 12:11:14;;;;;;;10.60;8.90;;;14.00;61.50;;;;;;4995496;28;20206;-83
2022/04/10 12:13:40;;;;;;;9.47;8.37;;;14.50;61.20;;;;;;4993702;28;20195;-83
2022/04/10 12:16:16;;;;;;;10.60;9.50;;;15.10;60.70;;;;;;5010029;28;20317;-82
2022/04/10 12:18:52;;;;;;;9.87;8.87;;;15.50;58.40;;;;;;5007659;28;20206;-84
2022/04/10 12:21:19;;;;;;;11.20;8.90;;;15.20;57.50;;;;;;5009116;28;20171;-79
2022/04/10 12:23:45;;;;;;;9.63;8.57;;;15.60;57.00;;;;;;5003664;28;20187;-80
2022/04/10 12:26:12;;;;;;;9.83;8.93;;;15.60;57.00;;;;;;5003005;28;20310;-80
2022/04/10 12:28:42;;;;;;;11.47;9.20;;;15.90;56.50;;;;;;5009110;28;20195;-80
2022/04/10 12:31:09;;;;;;;9.70;8.70;;;;;;;;;;5004862;28;20201;-79
2022/04/10 12:33:36;;;;;;;10.20;9.20;;;16.70;55.20;;;;;;5008924;28;20683;-80
2022/04/10 12:36:23;;;;;;;11.10;9.80;;;16.90;53.00;;;;;;4992647;28;20215;-80
2022/04/10 12:38:52;;;;;;;9.47;8.57;;;16.20;53.30;;;;;;5003873;28;20281;-79
2022/04/10 12:41:26;;;;;;;10.40;9.20;;;15.70;54.70;;;;;;5008957;28;20187;-80
2022/04/10 12:44:02;;;;;;;10.53;9.47;;;15.20;55.30;;;;;;5007127;28;20666;-79
2022/04/10 12:46:35;;;;;;;12.63;9.80;;;15.60;55.70;;;;;;5009999;28;20675;-79
2022/04/10 12:49:15;;;;;;;10.07;9.07;;;15.60;55.30;;;;;;4988513;28;20673;-79
2022/04/10 12:51:53;;;;;;;10.00;8.80;;;;;;;;;;5008494;28;20251;-80
2022/04/10 12:54:32;;;;;;;10.50;8.70;;;;;;;;;;5007616;28;20187;-80
2022/04/10 12:56:59;;;;;;;10.13;9.00;;;;;;;;;;4991390;28;20244;-79
2022/04/10 12:59:36;;;;;;;10.43;8.47;;;;;;;;;;4991307;28;20582;-79
2022/04/10 13:02:03;;;;;;;12.30;10.23;;;;;;;;;;5007511;28;20203;-79
2022/04/10 13:04:29;;;;;;;11.57;9.17;;;;;;;;;;5008973;28;20183;-79
2022/04/10 13:06:56;;;;;;;9.83;8.27;;;;;;;;;;5006484;28;20694;-79
2022/04/10 13:09:22;;;;;;;11.47;9.33;;;;;;;;;;5003367;28;20672;-80
2022/04/10 13:11:50;;;;;;;10.80;9.17;;;;;;;;;;5008047;28;20199;-78
2022/04/10 13:14:16;;;;;;;10.40;8.30;;;;;;;;;;5001579;28;20190;-80
2022/04/10 13:16:44;;;;;;;8.57;6.70;;;;;;;;;;5002814;28;20207;-79
2022/04/10 13:19:14;;;;;;;8.70;6.53;;;;;;;;;;5002955;28;20204;-79
2022/04/10 13:21:42;;;;;;;8.10;6.10;;;;;;;;;;5005668;28;20207;-78
2022/04/10 13:24:09;;;;;;;7.53;4.63;;;;;;;;;;5005177;28;20183;-79
2022/04/10 13:26:36;;;;;;;6.53;3.30;;;;;;;;;;5004211;28;20265;-79
2022/04/10 13:29:03;;;;;;;5.43;2.93;;;;;;;;;;5009815;28;20219;-79
2022/04/10 13:31:30;;;;;;;3.73;2.60;;;14.90;55.30;;;;;;5004886;28;20183;-79
2022/04/10 13:33:55;;;;;;;5.70;3.03;;;11.30;58.50;;;;;;5001871;28;20187;-79
2022/04/10 13:36:22;;;;;;;4.80;2.63;;;;;;;;;;5011054;28;21107;-79
2022/04/10 13:38:48;;;;;;;2.57;2.13;;;;;;;;;;5010049;28;20289;-79
2022/04/10 13:41:14;;;;;;;3.00;2.27;;;;;;;;;;5006817;28;21408;-79
2022/04/10 13:43:40;;;;;;;2.40;2.10;;;;;;;;;;5006233;28;20183;-80
2022/04/10 13:46:07;;;;;;;2.97;2.70;;;;;;;;;;5005307;28;20630;-79
2022/04/10 13:48:33;;;;;;;3.60;2.97;;;;;;;;;;5005436;28;20186;-78
2022/04/10 13:50:59;;;;;;;4.00;3.30;;;;;;;;;;5010525;28;20207;-81
2022/04/10 13:53:25;;;;;;;3.67;3.20;;;;;;;;;;5013402;28;20183;-80
2022/04/10 13:55:51;;;;;;;4.17;2.70;;;;;;;;;;5013863;28;20290;-80
2022/04/10 13:58:18;;;;;;;3.90;3.03;;;;;;;;;;5013921;28;20203;-80
2022/04/10 14:00:44;;;;;;;4.33;3.00;;;;;;;;;;5015622;28;20321;-80
2022/04/10 14:03:10;;;;;;;7.33;3.00;;;;;;;;;;5012238;28;20183;-79
2022/04/10 14:05:36;;;;;;;5.40;3.10;;;;;;;;;;4998335;28;20207;-79
2022/04/10 14:08:02;;;;;;;4.10;3.50;;;11.10;57.90;;;;;;5014605;28;20553;-79
2022/04/10 14:10:28;;;;;;;3.73;3.43;;;16.60;47.40;;;;;;5014295;28;20246;-79
2022/04/10 14:12:55;;;;;;;4.80;4.30;;;;;;;;;;5015138;28;20603;-79
2022/04/10 14:15:21;;;;;;;4.80;3.87;;;;;;;;;;5011990;28;20211;-79
2022/04/10 14:17:48;;;;;;;5.17;4.40;;;;;;;;;;5012666;28;20195;-79
2022/04/10 14:20:14;;;;;;;5.97;4.60;;;;;;;;;;5013905;28;20241;-79
2022/04/10 14:22:40;;;;;;;7.10;5.27;;;;;;;;;;4995617;28;20191;-78
2022/04/10 14:25:07;;;;;;;6.43;5.13;;;;;;;;;;5012555;28;20225;-78
2022/04/10 14:27:34;;;;;;;7.23;5.13;;;;;;;;;;5012166;28;20203;-79
2022/04/10 14:30:00;;;;;;;6.97;5.00;;;15.70;49.30;;;;;;5011771;28;20183;-79
2022/04/10 14:32:26;;;;;;;6.30;5.30;;;;;;;;;;4994212;28;20201;-80